Aérodrome :
LOGIN :

S'inscrire | Disclaimer

   EN    FR    IT 

 










Légende :    VFR   VFR Marginal   IFR   IFR Intensif   IFR Très Intensif
Visi : 
Plafond : 
>= 8 km
>= 3000ft
5 à 8 km
1000 à 3000 ft
1500m à 5 km
500 à 1000 ft
800 à 1500m
200 à 500 ft
< 800m
< 200 ft
Symboles :   Orages  Brouillard  Fortes neiges  Fortes précipitations  Vent > 20 kt
SIGMETs :   Divers  Orages  Givrage  Turbulence  Onde Orograph.  Cendres Volcan.







- Altitude de l'aérodrome : 374 ft
- Code IATA : LIS


LPPT - Lisboa Portela

DERNIER METAR :
  • 220000Z 33005KT 9999 BKN010 12/10 Q1032

METARs EXPIRÉS :
  • 212330Z 30006KT 9999 FEW010 12/10 Q1032
  • 212300Z 31005KT 270V340 9999 FEW012 12/10 Q1032
  • 212230Z 33008KT 9999 FEW016 12/10 Q1032
  • 212200Z 35006KT 9999 BKN016 12/10 Q1032
  • 212130Z 33004KT 300V010 9999 BKN016 13/10 Q1032

TAF TAF LPPT
Valide du 22 à 00h jusqu'au 23 à 06h UTC


212300Z 2200/2306 34005KT 9999 FEW015
BECMG 2200/2202 BKN012
TEMPO 2202/2209 5000 BR BKN003
BECMG 2210/2212 34012KT SCT030
BECMG 2222/2224 34005KT SCT012
TEMPO 2303/2306 BKN008
Pas de NOTAMs connus pour ce terrain.



MET'MAP, la Météo Aéronautique d'un coup d'oeil ! - Copyright ORBIFLY Décembre 2007 - Disclaimer

ORBIFLY MET'MAP TEAM :

Programmation & Développement : Alexandra Zaïnal
Conception & Développement : Baudouin d'Aumeries
Co-Programmation & Développement : Marc-Olivier Méhu
Soutien technique & logistique : Manuel Goepfert

Contact : metmap@orbifly.com




SOURCES & CREDITS :

   NOAA